Time;durP1;ratioP1;P1;durP2;ratioP2;P2;SDS_P1;SDS_P2;PMS_P1;PMS_P2;Temp;Humidity;BMP_temperature;BMP_pressure;BME280_temperature;BME280_humidity;BME280_pressure;Samples;Min_cycle;Max_cycle;Signal;HPM_P1;HPM_P2
2023/07/10 00:01:27;;;;;;;5.82;4.22;;;;;;;23.20;41.05;101155.78;5018163;28;20054;-55
2023/07/10 00:03:55;;;;;;;6.22;4.20;;;;;;;23.19;41.47;101146.03;5022772;28;20601;-57
2023/07/10 00:06:23;;;;;;;6.53;4.10;;;;;;;23.17;41.65;101149.88;5020111;28;20054;-57
2023/07/10 00:08:50;;;;;;;6.90;4.22;;;;;;;23.16;41.40;101151.72;5024752;28;20125;-53
2023/07/10 00:11:23;;;;;;;5.35;3.47;;;;;;;23.16;41.43;101150.88;5021777;28;20054;-56
2023/07/10 00:13:50;;;;;;;6.38;4.03;;;;;;;23.16;41.26;101158.94;5023399;28;20525;-58
2023/07/10 00:16:19;;;;;;;4.50;4.00;;;;;;;23.15;41.47;101147.38;5021639;28;20148;-51
2023/07/10 00:18:48;;;;;;;10.88;4.18;;;;;;;23.13;41.11;101154.72;5015301;28;20055;-61
2023/07/10 00:21:17;;;;;;;7.22;4.00;;;;;;;23.13;41.30;101149.34;5016739;28;20058;-52
2023/07/10 00:23:45;;;;;;;6.38;3.83;;;;;;;23.12;41.29;101153.03;5023959;28;20061;-54
2023/07/10 00:26:22;;;;;;;4.13;3.55;;;;;;;23.12;41.61;101145.00;5006854;28;20045;-50
2023/07/10 00:28:51;;;;;;;6.18;3.70;;;;;;;23.13;41.62;101145.81;5018362;28;20061;-60
2023/07/10 00:31:19;;;;;;;11.50;4.20;;;;;;;23.12;41.47;101150.34;5022984;28;20049;-61
2023/07/10 00:33:47;;;;;;;5.05;3.58;;;;;;;23.12;41.11;101155.72;5026168;28;20057;-50
2023/07/10 00:36:38;;;;;;;7.18;4.22;;;;;;;23.09;41.54;101156.03;5017733;28;20058;-49
2023/07/10 00:39:22;;;;;;;3.92;3.33;;;;;;;23.08;41.72;101158.88;5023078;28;20136;-56
2023/07/10 00:41:54;;;;;;;5.75;3.85;;;;;;;23.08;42.18;101167.78;5018522;28;20034;-57
2023/07/10 00:44:27;;;;;;;6.13;3.90;;;;;;;23.05;42.48;101168.09;5041273;28;20375;-58
2023/07/10 00:46:57;;;;;;;6.63;3.50;;;;;;;23.04;42.61;101165.56;5002987;28;20046;-57
2023/07/10 00:49:27;;;;;;;5.93;3.45;;;;;;;23.02;42.86;101171.13;5025003;28;20103;-55
2023/07/10 00:51:57;;;;;;;4.03;3.45;;;;;;;23.01;43.21;101182.88;5017850;28;20053;-57
2023/07/10 00:54:29;;;;;;;4.25;3.55;;;;;;;22.99;43.15;101180.31;5015514;28;21099;-58
2023/07/10 00:56:57;;;;;;;5.63;3.65;;;;;;;22.96;43.00;101183.31;5035395;28;20145;-56
2023/07/10 00:59:27;;;;;;;6.20;3.55;;;;;;;22.94;42.84;101189.84;5022411;28;20120;-57
2023/07/10 01:02:07;;;;;;;4.80;3.83;;;;;;;22.91;43.24;101196.38;5012794;28;20049;-59
2023/07/10 01:04:35;;;;;;;5.68;3.92;;;;;;;22.86;43.28;101206.69;5017055;28;20054;-58
2023/07/10 01:07:03;;;;;;;6.72;3.55;;;;;;;22.83;42.70;101211.53;5020579;28;20438;-54
2023/07/10 01:09:31;;;;;;;8.27;4.60;;;;;;;22.78;42.78;101241.53;5021204;28;20058;-55
2023/07/10 01:11:58;;;;;;;6.53;4.43;;;;;;;22.75;42.66;101257.97;5004495;28;20060;-55
2023/07/10 01:14:26;;;;;;;9.32;4.68;;;;;;;22.79;41.80;101253.13;5020354;28;20132;-56
2023/07/10 01:16:53;;;;;;;9.05;4.75;;;;;;;22.87;42.06;101243.28;5017590;28;20416;-57
2023/07/10 01:19:22;;;;;;;6.70;4.07;;;;;;;22.85;42.12;101226.50;5022099;28;20136;-53
2023/07/10 01:21:50;;;;;;;7.63;4.13;;;;;;;22.84;42.06;101232.03;5001745;28;20137;-58
2023/07/10 01:24:18;;;;;;;8.45;4.85;;;;;;;22.83;42.66;101243.75;5016258;28;20045;-61
2023/07/10 01:26:45;;;;;;;6.05;4.72;;;;;;;22.77;42.92;101244.38;5020108;28;20060;-58
2023/07/10 01:29:28;;;;;;;5.15;3.90;;;;;;;22.75;42.56;101231.13;5024366;28;20128;-57
2023/07/10 01:31:55;;;;;;;6.60;4.45;;;;;;;22.76;42.77;101208.66;5021170;28;20050;-58
2023/07/10 01:34:28;;;;;;;6.43;4.47;;;;;;;22.74;42.54;101206.13;5022413;28;20049;-59
2023/07/10 01:36:56;;;;;;;6.15;4.03;;;;;;;22.73;43.01;101217.84;5019861;28;20080;-57
2023/07/10 01:39:39;;;;;;;7.13;4.55;;;;;;;22.69;43.14;101202.19;5023422;28;20053;-55
2023/07/10 01:42:07;;;;;;;9.68;4.95;;;;;;;22.68;43.48;101198.69;5011179;28;20069;-59
2023/07/10 01:44:37;;;;;;;5.30;4.22;;;;;;;22.67;43.24;101180.88;5024239;28;20107;-54
2023/07/10 01:47:07;;;;;;;6.22;3.92;;;;;;;22.69;42.88;101186.94;5020721;28;20127;-57
2023/07/10 01:49:39;;;;;;;5.32;4.70;;;;;;;22.68;43.08;101179.06;5023133;28;20064;-56
2023/07/10 01:52:08;;;;;;;4.80;3.80;;;;;;;22.67;43.31;101178.22;5017290;28;20053;-58
2023/07/10 01:54:35;;;;;;;5.88;4.43;;;;;;;22.66;43.37;101171.16;5022165;28;20153;-58
2023/07/10 01:57:03;;;;;;;7.22;3.90;;;;;;;22.67;44.53;101166.63;5019243;28;20362;-57
2023/07/10 01:59:30;;;;;;;7.28;4.18;;;;;;;22.64;44.65;101148.16;5022734;28;20049;-59
2023/07/10 02:01:59;;;;;;;7.05;3.92;;;;;;;22.61;44.88;101141.28;5018952;28;20996;-59
2023/07/10 02:04:27;;;;;;;4.90;4.05;;;;;;;22.59;44.72;101143.25;5015077;28;20782;-58
2023/07/10 02:06:54;;;;;;;9.25;4.18;;;;;;;22.59;45.03;101145.09;5017418;28;20053;-55
2023/07/10 02:09:23;;;;;;;8.77;4.18;;;;;;;22.57;44.67;101142.59;5020896;28;20052;-55
2023/07/10 02:11:51;;;;;;;7.40;4.63;;;;;;;22.56;44.83;101119.44;5021252;28;20053;-58
2023/07/10 02:14:19;;;;;;;4.68;4.18;;;;;;;22.56;44.79;101127.50;5019162;28;20525;-53
2023/07/10 02:16:47;;;;;;;6.28;4.25;;;;;;;22.55;44.81;101116.88;5022766;28;20065;-56
2023/07/10 02:19:14;;;;;;;5.40;4.15;;;;;;;22.52;44.94;101128.78;5021029;28;20069;-58
2023/07/10 02:21:41;;;;;;;8.00;4.88;;;;;;;22.48;44.95;101117.53;5022433;28;20140;-55
2023/07/10 02:24:09;;;;;;;6.55;4.22;;;;;;;22.45;44.85;101115.13;5021229;28;20053;-56
2023/07/10 02:26:36;;;;;;;6.32;4.15;;;;;;;22.45;45.37;101115.13;5019020;28;20062;-56
2023/07/10 02:29:03;;;;;;;6.70;4.28;;;;;;;22.42;45.11;101109.22;5018110;28;20058;-60
2023/07/10 02:31:31;;;;;;;6.15;4.30;;;;;;;22.33;45.44;101105.66;5019277;28;20087;-59
2023/07/10 02:33:58;;;;;;;10.77;4.57;;;;;;;22.29;45.75;101100.75;5017641;28;20048;-59
2023/07/10 02:36:28;;;;;;;7.03;4.57;;;;;;;22.23;45.92;101099.53;5019573;28;20063;-59
2023/07/10 02:38:56;;;;;;;7.30;4.38;;;;;;;22.17;46.35;101100.16;5021446;28;20476;-59
2023/07/10 02:41:24;;;;;;;8.75;4.63;;;;;;;22.11;46.11;101095.34;5017342;28;20080;-57
2023/07/10 02:43:51;;;;;;;8.32;4.28;;;;;;;22.05;46.79;101090.63;5022799;28;20144;-57
2023/07/10 02:46:18;;;;;;;9.63;4.43;;;;;;;22.02;46.96;101101.66;5020801;28;20038;-58
2023/07/10 02:48:46;;;;;;;7.60;4.40;;;;;;;21.98;47.08;101093.09;5023553;28;20132;-58
2023/07/10 02:51:14;;;;;;;6.72;4.05;;;;;;;21.95;47.11;101082.66;5033886;28;20140;-56
2023/07/10 02:53:41;;;;;;;7.28;4.10;;;;;;;21.91;47.43;101083.97;5015702;28;20057;-57
2023/07/10 02:56:09;;;;;;;5.57;3.70;;;;;;;21.88;47.21;101081.56;5019535;28;20057;-59
2023/07/10 02:58:36;;;;;;;4.93;4.10;;;;;;;21.82;47.54;101056.22;5020011;28;20426;-59
2023/07/10 03:01:04;;;;;;;9.25;5.18;;;;;;;21.77;48.01;101053.19;5015278;28;20061;-60
2023/07/10 03:03:31;;;;;;;4.45;3.70;;;;;;;21.72;48.17;101047.44;5021667;28;20102;-57
2023/07/10 03:06:00;;;;;;;7.68;4.22;;;;;;;21.70;47.76;101052.09;5016010;28;20124;-58
2023/07/10 03:08:28;;;;;;;9.88;4.53;;;;;;;21.67;48.10;101031.81;5015408;28;20046;-58
2023/07/10 03:11:04;;;;;;;6.57;4.07;;;;;;;21.63;48.71;101025.06;5018879;28;20131;-59
2023/07/10 03:13:32;;;;;;;6.43;4.15;;;;;;;21.60;48.61;101019.16;5021891;28;20053;-57
2023/07/10 03:16:02;;;;;;;7.55;3.83;;;;;;;21.60;48.75;101020.00;5016719;28;20141;-56
2023/07/10 03:18:30;;;;;;;5.75;4.20;;;;;;;21.60;48.76;101013.81;5020336;28;20049;-58
2023/07/10 03:20:57;;;;;;;6.68;4.50;;;;;;;21.58;49.11;101008.63;5021479;28;20060;-58
2023/07/10 03:23:24;;;;;;;5.90;3.97;;;;;;;21.56;49.19;100997.19;5022066;28;20053;-59
2023/07/10 03:25:51;;;;;;;6.05;4.82;;;;;;;21.56;49.63;101002.56;5018805;28;20083;-59
2023/07/10 03:28:19;;;;;;;4.30;3.83;;;;;;;21.56;49.30;101005.22;5017164;28;20061;-58
2023/07/10 03:30:46;;;;;;;8.30;3.95;;;;;;;21.58;49.61;101000.56;5023417;28;20557;-58
2023/07/10 03:33:15;;;;;;;9.23;4.10;;;;;;;21.58;49.47;100997.91;5019559;28;20076;-57
2023/07/10 03:35:48;;;;;;;5.22;3.50;;;;;;;21.58;49.70;100991.69;5019793;28;20057;-57
2023/07/10 03:38:16;;;;;;;6.75;4.05;;;;;;;21.58;49.85;100997.91;5020850;28;20060;-56
2023/07/10 03:40:53;;;;;;;6.60;4.03;;;;;;;21.60;49.67;101005.78;5022347;28;20524;-58
2023/07/10 03:43:21;;;;;;;7.95;3.45;;;;;;;21.61;49.44;101010.97;5022335;28;20477;-58
2023/07/10 03:45:49;;;;;;;9.23;4.32;;;;;;;21.63;49.69;101014.34;5018391;28;20076;-55
2023/07/10 03:48:16;;;;;;;5.07;3.85;;;;;;;21.62;49.55;100995.75;5020036;28;20037;-57
2023/07/10 03:50:43;;;;;;;5.90;3.90;;;;;;;21.62;49.74;101001.97;5023693;28;20132;-58
2023/07/10 03:53:10;;;;;;;4.35;3.67;;;;;;;21.64;49.43;101012.50;5022212;28;20068;-56
2023/07/10 03:55:52;;;;;;;10.00;4.60;;;;;;;21.65;49.97;101008.84;5025571;28;20050;-58
2023/07/10 03:58:31;;;;;;;8.30;4.20;;;;;;;21.66;49.88;101015.88;5029053;28;20069;-59
2023/07/10 04:01:00;;;;;;;8.65;4.75;;;;;;;21.66;50.31;101019.41;5016443;28;21817;-56
2023/07/10 04:03:30;;;;;;;5.72;4.10;;;;;;;21.67;49.97;101015.75;5023054;28;20057;-57
2023/07/10 04:05:58;;;;;;;6.28;4.10;;;;;;;21.68;50.15;101009.38;5021089;28;20080;-57
2023/07/10 04:08:30;;;;;;;8.82;5.05;;;;;;;21.70;49.85;100991.31;5020125;28;20145;-58
2023/07/10 04:10:59;;;;;;;7.53;4.35;;;;;;;21.71;50.05;100998.34;5020154;28;20561;-54
2023/07/10 04:13:27;;;;;;;8.70;4.65;;;;;;;21.76;49.56;100986.34;5020120;28;20053;-57
2023/07/10 04:15:58;;;;;;;6.43;4.38;;;;;;;21.78;49.54;100987.00;5024130;28;20057;-57
2023/07/10 04:18:44;;;;;;;9.25;5.28;;;;;;;21.84;49.26;100989.06;5022699;28;20056;-57
2023/07/10 04:21:16;;;;;;;9.10;4.60;;;;;;;21.90;49.23;100983.94;5022310;28;20046;-56
2023/07/10 04:23:44;;;;;;;6.03;4.32;;;;;;;21.96;49.05;100990.50;5022442;28;20041;-62
2023/07/10 04:26:43;;;;;;;6.70;4.10;;;;;;;22.04;49.01;100987.91;5021905;28;20403;-57
2023/07/10 04:29:11;;;;;;;6.95;4.40;;;;;;;22.11;48.92;100986.28;4999303;28;20077;-57
2023/07/10 04:31:38;;;;;;;7.63;3.97;;;;;;;22.20;48.82;100976.50;5023740;28;20068;-58
2023/07/10 04:34:07;;;;;;;6.55;4.40;;;;;;;22.26;48.56;100972.34;5022983;28;20057;-58
2023/07/10 04:36:35;;;;;;;13.45;4.50;;;;;;;22.32;48.21;100961.81;5021660;28;20050;-56
2023/07/10 04:39:02;;;;;;;6.70;4.70;;;;;;;22.37;47.76;100958.66;5020691;28;20060;-59
2023/07/10 04:41:30;;;;;;;8.63;4.93;;;;;;;22.42;47.86;100962.53;5021716;28;20096;-60
2023/07/10 04:43:57;;;;;;;6.22;3.85;;;;;;;22.48;47.73;100967.28;5019926;28;20144;-56
2023/07/10 04:46:24;;;;;;;13.75;4.32;;;;;;;22.53;47.31;100964.13;5022005;28;20367;-56
2023/07/10 04:48:51;;;;;;;6.18;4.32;;;;;;;22.58;47.34;100956.41;5019985;28;20610;-57
2023/07/10 04:51:19;;;;;;;7.07;4.22;;;;;;;22.69;46.64;100963.34;5022495;28;20045;-60
2023/07/10 04:53:47;;;;;;;8.68;4.53;;;;;;;22.73;46.78;100967.38;5022707;28;20100;-60
2023/07/10 04:56:17;;;;;;;7.40;4.78;;;;;;;22.80;46.65;100973.81;5025226;28;20046;-59
2023/07/10 04:58:54;;;;;;;7.13;4.35;;;;;;;22.89;46.63;100972.88;5024880;28;20232;-56
2023/07/10 05:01:29;;;;;;;11.20;4.90;;;;;;;22.98;46.03;100971.06;5021104;28;20055;-52
2023/07/10 05:03:57;;;;;;;5.47;3.70;;;;;;;23.06;46.00;100989.03;5036396;28;20049;-58
2023/07/10 05:06:24;;;;;;;6.55;4.38;;;;;;;23.11;45.92;101003.66;5021512;28;20053;-55
2023/07/10 05:08:54;;;;;;;8.30;3.88;;;;;;;23.07;46.18;101013.03;5018230;28;20052;-59
2023/07/10 05:11:23;;;;;;;14.23;4.85;;;;;;;22.97;46.19;101028.44;5022233;28;20140;-56
2023/07/10 05:13:50;;;;;;;6.75;4.53;;;;;;;22.89;45.78;101039.97;5021939;28;20046;-58
2023/07/10 05:16:17;;;;;;;6.03;4.47;;;;;;;22.81;46.23;101039.06;5021149;28;20076;-57
2023/07/10 05:18:45;;;;;;;6.35;3.97;;;;;;;22.73;46.52;101050.59;5020166;28;20125;-58
2023/07/10 05:21:12;;;;;;;10.27;5.00;;;;;;;22.66;46.56;101052.25;5021444;28;20046;-56
2023/07/10 05:23:40;;;;;;;7.45;4.40;;;;;;;22.62;46.93;101046.34;5015881;28;20085;-59
2023/07/10 05:26:12;;;;;;;5.80;4.25;;;;;;;22.58;47.89;101065.59;5019801;28;20068;-59
2023/07/10 05:28:40;;;;;;;5.75;4.32;;;;;;;22.53;48.96;101081.34;5017223;28;20042;-59
2023/07/10 05:31:09;;;;;;;7.70;4.38;;;;;;;22.42;49.67;101112.75;5020888;28;20057;-59
2023/07/10 05:33:37;;;;;;;7.25;4.50;;;;;;;22.26;52.78;101160.09;5021639;28;20071;-59
2023/07/10 05:36:07;;;;;;;9.05;4.95;;;;;;;21.72;52.38;101205.53;5017321;28;20056;-59
2023/07/10 05:38:35;;;;;;;10.27;4.88;;;;;;;21.68;52.17;101172.81;5022076;28;20132;-59
2023/07/10 05:41:03;;;;;;;10.05;4.40;;;;;;;21.67;51.61;101176.50;5022651;28;20081;-61
2023/07/10 05:43:31;;;;;;;13.57;5.15;;;;;;;21.62;52.96;101213.63;5012549;28;20061;-58
2023/07/10 05:46:00;;;;;;;14.35;4.72;;;;;;;21.51;53.93;101221.84;5018622;28;20063;-58
2023/07/10 05:48:27;;;;;;;10.88;5.05;;;;;;;21.48;53.61;101184.66;5038108;28;20065;-60
2023/07/10 05:50:54;;;;;;;7.70;4.80;;;;;;;21.51;53.46;101195.03;5023491;28;20136;-59
2023/07/10 05:53:22;;;;;;;9.38;5.07;;;;;;;21.51;53.01;101202.25;5023347;28;20056;-59
2023/07/10 05:55:52;;;;;;;9.45;5.30;;;;;;;21.51;53.91;101180.81;5019897;28;20140;-60
2023/07/10 05:58:22;;;;;;;7.20;5.70;;;;;;;21.54;53.89;101180.53;5023616;28;20410;-60
2023/07/10 06:00:51;;;;;;;10.88;5.00;;;;;;;21.55;54.49;101180.38;5012388;28;20054;-57
2023/07/10 06:03:19;;;;;;;8.00;5.07;;;;;;;21.53;54.41;101166.28;5017311;28;20053;-60
2023/07/10 06:05:58;;;;;;;9.20;5.95;;;;;;;21.59;56.28;101160.31;5003442;28;20471;-60
2023/07/10 06:08:27;;;;;;;10.20;4.90;;;;;;;21.58;57.85;101153.28;5016489;28;20113;-60
2023/07/10 06:10:55;;;;;;;12.32;5.30;;;;;;;21.58;58.56;101133.69;5011499;28;20080;-58
2023/07/10 06:13:23;;;;;;;22.55;6.50;;;;;;;21.51;61.21;101109.31;5009998;28;20049;-57
2023/07/10 06:15:54;;;;;;;14.25;7.47;;;;;;;21.45;63.31;101081.31;5013134;28;20050;-57
2023/07/10 06:18:23;;;;;;;15.90;6.28;;;;;;;21.36;65.41;101036.69;5010799;28;20633;-60
2023/07/10 06:20:55;;;;;;;13.82;6.50;;;;;;;21.29;66.01;101030.19;5012196;28;20049;-59
2023/07/10 06:23:24;;;;;;;13.23;6.28;;;;;;;21.28;66.67;101044.56;5014574;28;20057;-58
2023/07/10 06:25:51;;;;;;;9.43;5.93;;;;;;;21.31;67.05;101049.69;5012827;28;20124;-59
2023/07/10 06:28:20;;;;;;;14.65;5.63;;;;;;;21.35;68.36;101036.84;5015718;28;20069;-59
2023/07/10 06:30:58;;;;;;;12.43;6.68;;;;;;;21.35;68.94;101031.47;5015364;28;20049;-58
2023/07/10 06:33:27;;;;;;;11.55;6.50;;;;;;;21.37;69.48;101034.84;5015653;28;20123;-60
2023/07/10 06:35:54;;;;;;;11.35;5.88;;;;;;;21.38;70.13;101033.84;4998712;28;20755;-59
2023/07/10 06:38:22;;;;;;;10.27;5.45;;;;;;;21.53;70.38;101035.03;5014008;28;20058;-59
2023/07/10 06:43:43;;;;;;;9.23;5.95;;;;;;;21.73;71.21;101028.50;5018744;28;20529;-60
2023/07/10 06:46:11;;;;;;;10.00;6.30;;;;;;;21.91;71.11;101033.88;5017034;28;20107;-59
2023/07/10 06:48:39;;;;;;;13.30;5.88;;;;;;;22.04;70.86;101040.69;5014336;28;20059;-60
2023/07/10 06:51:06;;;;;;;11.57;5.95;;;;;;;22.18;71.20;101027.59;4995962;28;20049;-59
2023/07/10 06:53:34;;;;;;;11.10;5.78;;;;;;;22.34;70.87;101020.69;5011958;28;20057;-59
2023/07/10 06:56:02;;;;;;;13.70;7.28;;;;;;;22.45;70.00;101015.88;5015330;28;20510;-59
2023/07/10 06:58:32;;;;;;;19.95;7.03;;;;;;;22.57;69.36;101023.69;5010036;28;20160;-58
2023/07/10 07:01:02;;;;;;;11.32;6.63;;;;;;;22.67;69.11;101027.91;4992329;28;20041;-59
2023/07/10 07:03:30;;;;;;;12.80;7.35;;;;;;;22.75;68.95;101040.56;5010323;28;20191;-56
2023/07/10 07:05:58;;;;;;;14.30;7.30;;;;;;;22.81;68.53;101022.97;5014717;28;20053;-56
2023/07/10 07:08:26;;;;;;;12.45;6.68;;;;;;;22.85;67.13;101014.41;5004378;28;20053;-56
2023/07/10 07:10:54;;;;;;;11.85;7.45;;;;;;;22.89;66.68;101010.44;5020909;28;20172;-57
2023/07/10 07:13:21;;;;;;;10.82;6.63;;;;;;;22.92;66.14;101006.59;5019681;28;20439;-58
2023/07/10 07:15:50;;;;;;;11.90;6.85;;;;;;;22.95;66.18;101003.59;5020667;28;20053;-54
2023/07/10 07:18:18;;;;;;;10.80;6.50;;;;;;;22.96;65.84;100997.19;5011023;28;20629;-58
2023/07/10 07:20:45;;;;;;;13.20;5.97;;;;;;;22.91;65.69;100999.53;5007374;28;20141;-59
2023/07/10 07:23:13;;;;;;;12.38;6.25;;;;;;;22.90;64.92;100998.69;5011346;28;20510;-59
2023/07/10 07:25:41;;;;;;;13.00;6.68;;;;;;;22.89;65.15;101009.56;5021230;28;20485;-60
2023/07/10 07:28:09;;;;;;;14.68;7.10;;;;;;;22.89;65.32;101013.13;5020828;28;20045;-60
2023/07/10 07:30:36;;;;;;;11.90;6.35;;;;;;;22.95;66.64;101003.59;5017366;28;20049;-59
2023/07/10 07:33:03;;;;;;;9.50;6.05;;;;;;;22.99;65.87;100999.56;5013876;28;20698;-59
2023/07/10 07:35:32;;;;;;;8.35;6.35;;;;;;;23.00;64.45;100998.56;5019539;28;20081;-58
2023/07/10 07:37:59;;;;;;;10.48;6.35;;;;;;;23.04;63.83;100994.56;5017174;28;20054;-58
2023/07/10 07:40:27;;;;;;;10.70;5.85;;;;;;;23.22;62.72;100995.28;5019791;28;20037;-58
2023/07/10 07:42:54;;;;;;;16.35;6.53;;;;;;;23.43;61.14;100992.16;5023690;28;20439;-58
2023/07/10 07:45:21;;;;;;;12.48;6.32;;;;;;;23.70;60.36;100987.53;5023805;28;20137;-60
2023/07/10 07:47:48;;;;;;;9.18;6.35;;;;;;;23.98;59.24;100982.63;5021336;28;20063;-59
2023/07/10 07:50:16;;;;;;;8.82;5.68;;;;;;;24.21;58.63;100974.72;5023505;28;20715;-56
2023/07/10 07:52:43;;;;;;;8.77;6.28;;;;;;;24.38;58.39;100976.41;5021805;28;20050;-60
2023/07/10 07:55:11;;;;;;;9.07;5.47;;;;;;;24.62;56.78;100975.47;5019902;28;20057;-59
2023/07/10 07:57:38;;;;;;;10.50;5.85;;;;;;;24.85;55.79;100978.25;5021117;28;20077;-58
2023/07/10 08:00:07;;;;;;;12.25;5.30;;;;;;;25.07;54.93;100975.78;5017866;28;20688;-59
2023/07/10 08:02:35;;;;;;;10.60;5.40;;;;;;;25.27;54.36;100976.22;5019096;28;20045;-57
2023/07/10 08:05:02;;;;;;;9.80;6.18;;;;;;;25.50;53.40;100966.31;5019140;28;20062;-59
2023/07/10 08:07:42;;;;;;;9.25;6.43;;;;;;;25.69;52.08;100973.91;5018106;28;20481;-58
2023/07/10 08:10:10;;;;;;;10.13;6.22;;;;;;;25.84;51.83;100982.06;5023580;28;20372;-57
2023/07/10 08:12:37;;;;;;;9.93;5.70;;;;;;;25.90;50.61;100975.97;5022146;28;20354;-58
2023/07/10 08:15:05;;;;;;;12.52;5.85;;;;;;;26.02;50.72;100973.66;5020456;28;20169;-59
2023/07/10 08:17:32;;;;;;;10.65;5.57;;;;;;;26.18;50.58;100972.66;5019814;28;20050;-59
2023/07/10 08:20:00;;;;;;;11.13;5.80;;;;;;;26.34;50.21;100977.88;5018285;28;20085;-59
2023/07/10 08:22:27;;;;;;;7.60;5.22;;;;;;;26.42;49.41;100975.09;5022959;28;20049;-58
2023/07/10 08:24:54;;;;;;;7.07;5.53;;;;;;;26.55;48.58;100977.19;5021936;28;20153;-59
2023/07/10 08:27:21;;;;;;;9.18;6.22;;;;;;;26.67;48.61;100974.88;5008903;28;20054;-56
2023/07/10 08:29:49;;;;;;;10.38;6.13;;;;;;;26.82;48.42;100982.94;5023296;28;20414;-60
2023/07/10 08:32:16;;;;;;;7.57;5.57;;;;;;;26.90;48.33;100983.69;5020431;28;20064;-59
2023/07/10 08:34:43;;;;;;;7.50;5.78;;;;;;;26.91;46.75;100977.25;5019077;28;20120;-60
2023/07/10 08:37:10;;;;;;;8.70;5.60;;;;;;;26.96;46.47;100974.81;5019518;28;20095;-59
2023/07/10 08:39:38;;;;;;;7.63;5.65;;;;;;;27.05;45.70;100972.84;5021614;28;20053;-61
2023/07/10 08:42:16;;;;;;;8.70;5.78;;;;;;;27.11;45.89;100974.84;5014087;28;20056;-60
2023/07/10 08:44:47;;;;;;;6.45;5.30;;;;;;;27.11;45.03;100974.84;5020093;28;20156;-60
2023/07/10 08:47:21;;;;;;;9.82;5.57;;;;;;;27.26;45.41;100977.50;5018240;28;20065;-59
2023/07/10 08:50:15;;;;;;;6.40;5.38;;;;;;;27.45;45.52;100973.31;5022267;28;20441;-58
2023/07/10 08:53:00;;;;;;;8.43;5.90;;;;;;;27.52;45.51;100968.81;5016576;28;20148;-59
2023/07/10 08:55:36;;;;;;;10.82;5.68;;;;;;;27.67;45.48;100975.00;5019728;28;20144;-59
2023/07/10 08:58:04;;;;;;;11.43;5.80;;;;;;;27.79;44.95;100974.53;5019799;28;20072;-60
2023/07/10 09:00:36;;;;;;;7.43;5.50;;;;;;;27.94;44.46;100980.66;5023941;28;20080;-58
2023/07/10 09:03:34;;;;;;;7.57;5.35;;;;;;;28.06;44.19;100978.28;5023971;28;20053;-60
2023/07/10 09:06:06;;;;;;;7.47;5.25;;;;;;;28.15;44.72;100983.34;5021896;28;20136;-58
2023/07/10 09:08:34;;;;;;;7.88;5.57;;;;;;;28.16;43.88;100967.94;5020154;28;20132;-60
2023/07/10 09:11:03;;;;;;;12.80;5.97;;;;;;;28.20;43.38;100961.94;5019812;28;20842;-58
2023/07/10 09:13:53;;;;;;;10.30;6.32;;;;;;;28.22;43.80;100961.72;5012974;28;20537;-59
2023/07/10 09:16:21;;;;;;;11.60;6.55;;;;;;;28.26;43.46;100966.53;5023231;28;20174;-58
2023/07/10 09:19:03;;;;;;;7.93;5.78;;;;;;;28.33;43.82;100963.06;5022666;28;20377;-60
2023/07/10 09:21:34;;;;;;;10.43;7.00;;;;;;;28.33;44.08;100955.78;5016853;28;20060;-60
2023/07/10 09:24:03;;;;;;;11.13;6.43;;;;;;;28.33;43.63;100955.78;5024000;28;20057;-60
2023/07/10 09:26:38;;;;;;;7.93;6.13;;;;;;;28.52;42.67;100954.25;5014861;28;20164;-59
2023/07/10 09:29:10;;;;;;;;;;;;;;;28.67;42.35;100954.94;5020831;28;20053;-62
2023/07/10 09:31:55;;;;;;;8.48;5.82;;;;;;;28.81;42.98;100957.69;5022597;28;19932;-60
2023/07/10 09:34:27;;;;;;;8.07;5.57;;;;;;;28.80;42.51;100972.28;5011496;28;20129;-59
2023/07/10 09:36:55;;;;;;;9.52;6.07;;;;;;;28.63;41.68;100966.38;5021455;28;20087;-57
2023/07/10 09:39:32;;;;;;;8.35;5.88;;;;;;;28.49;42.14;100965.47;5020649;28;20045;-60
2023/07/10 09:42:03;;;;;;;8.77;5.65;;;;;;;28.62;42.56;100972.81;5019896;28;20056;-60
2023/07/10 09:44:36;;;;;;;13.00;5.82;;;;;;;28.41;41.66;100971.03;5022771;28;20364;-59
2023/07/10 09:47:09;;;;;;;8.23;6.85;;;;;;;28.56;42.91;100979.91;5020543;28;20060;-58
2023/07/10 09:49:46;;;;;;;9.82;6.40;;;;;;;28.62;42.06;100972.81;5020230;28;20054;-58
2023/07/10 09:52:25;;;;;;;13.60;6.40;;;;;;;28.77;41.80;100965.38;5020324;28;20045;-60
2023/07/10 09:55:02;;;;;;;7.50;5.93;;;;;;;29.07;41.69;100959.72;5019008;28;20050;-57
2023/07/10 09:57:30;;;;;;;10.27;6.55;;;;;;;29.30;41.35;100951.22;5016380;28;20426;-60
2023/07/10 09:59:59;;;;;;;7.72;5.85;;;;;;;29.42;40.98;100952.28;5022372;28;20401;-58
2023/07/10 10:02:34;;;;;;;8.27;5.60;;;;;;;29.58;41.05;100948.38;5037861;28;20073;-60
2023/07/10 10:05:07;;;;;;;;;;;;;;;29.64;39.90;100953.81;5012510;28;20104;-59
2023/07/10 10:07:37;;;;;;;8.00;5.65;;;;;;;29.69;39.35;100956.72;5010032;28;20386;-59
2023/07/10 10:10:37;;;;;;;8.63;6.35;;;;;;;29.59;39.33;100937.31;5019281;28;20084;-61
2023/07/10 10:13:20;;;;;;;12.07;6.50;;;;;;;29.73;39.60;100943.59;5008065;28;20045;-59
2023/07/10 10:16:02;;;;;;;7.45;5.63;;;;;;;29.90;39.20;100954.84;5015361;28;20053;-59
2023/07/10 10:18:40;;;;;;;8.02;6.53;;;;;;;29.91;38.65;100953.81;5016366;28;20060;-58
2023/07/10 10:21:11;;;;;;;11.10;6.53;;;;;;;30.14;38.90;100947.97;5013072;28;20132;-56
2023/07/10 10:23:40;;;;;;;11.07;6.70;;;;;;;30.37;36.64;100953.78;5014488;28;20065;-52
2023/07/10 10:26:23;;;;;;;7.78;5.90;;;;;;;30.23;37.57;100955.69;5015931;28;20946;-52
2023/07/10 10:29:09;;;;;;;7.68;5.90;;;;;;;30.43;37.46;100957.53;5017132;28;20466;-55
2023/07/10 10:31:42;;;;;;;7.43;6.65;;;;;;;30.56;37.96;100951.22;5015791;28;20061;-54
2023/07/10 10:34:20;;;;;;;8.23;6.43;;;;;;;30.49;37.59;100941.22;5016768;28;20072;-58
2023/07/10 10:36:47;;;;;;;7.88;6.90;;;;;;;30.59;37.58;100939.94;5032971;28;20084;-53
2023/07/10 10:39:21;;;;;;;7.65;6.68;;;;;;;30.76;37.85;100936.53;5020095;28;20053;-53
2023/07/10 10:41:55;;;;;;;6.80;5.63;;;;;;;30.83;38.72;100935.66;5015573;28;20128;-54
2023/07/10 10:44:46;;;;;;;7.25;6.13;;;;;;;30.87;38.24;100924.16;5015067;28;20569;-55
2023/07/10 10:48:01;;;;;;;8.00;6.22;;;;;;;31.04;38.23;100935.34;5014822;28;20042;-58
2023/07/10 10:51:14;;;;;;;9.20;7.07;;;;;;;31.08;37.78;100920.28;5001420;28;20112;-56
2023/07/10 10:54:23;;;;;;;9.85;6.65;;;;;;;31.20;37.84;100921.22;5014945;28;20061;-56
2023/07/10 10:57:12;;;;;;;6.45;5.72;;;;;;;31.36;37.66;100919.91;4999630;28;20140;-55
2023/07/10 10:59:42;;;;;;;7.82;5.82;;;;;;;31.47;36.32;100912.91;5017206;28;20128;-52
2023/07/10 11:02:44;;;;;;;8.40;5.53;;;;;;;31.46;36.03;100913.97;5014259;28;20068;-56
2023/07/10 11:05:14;;;;;;;6.90;5.72;;;;;;;31.51;36.36;100911.41;5018603;28;20053;-55
2023/07/10 11:07:42;;;;;;;8.30;5.35;;;;;;;31.67;35.62;100912.78;5014044;28;20046;-56
2023/07/10 11:10:15;;;;;;;6.55;4.90;;;;;;;31.90;36.27;100913.00;5015945;28;20068;-55
2023/07/10 11:12:43;;;;;;;7.30;5.70;;;;;;;32.05;36.00;100917.25;5010184;28;20073;-51
2023/07/10 11:15:18;;;;;;;7.63;5.15;;;;;;;32.10;35.91;100920.13;5018394;28;20049;-52
2023/07/10 11:17:49;;;;;;;8.48;5.47;;;;;;;31.76;36.69;100920.44;5016880;28;20053;-55
2023/07/10 11:20:18;;;;;;;11.40;5.25;;;;;;;31.76;36.54;100925.88;5015891;28;20131;-55
2023/07/10 11:22:54;;;;;;;5.43;4.57;;;;;;;31.68;36.83;100914.44;5014229;28;20053;-55
2023/07/10 11:25:37;;;;;;;7.55;4.70;;;;;;;31.80;36.21;100925.44;5017020;28;20061;-56
2023/07/10 11:28:17;;;;;;;5.88;5.20;;;;;;;31.91;35.49;100919.28;5015030;28;20057;-55
2023/07/10 11:30:44;;;;;;;7.88;4.80;;;;;;;32.14;35.50;100916.75;5014987;28;20081;-56
2023/07/10 11:33:18;;;;;;;7.25;5.60;;;;;;;32.41;35.89;100920.03;5017346;28;20718;-54
2023/07/10 11:36:23;;;;;;;9.70;6.13;;;;;;;32.23;36.15;100918.09;5012460;28;20152;-54
2023/07/10 11:38:55;;;;;;;9.50;6.22;;;;;;;31.98;36.69;100923.63;4998855;28;21024;-52
2023/07/10 11:41:30;;;;;;;10.25;6.10;;;;;;;31.71;36.10;100912.09;5019507;28;20061;-57
2023/07/10 11:44:19;;;;;;;7.53;6.00;;;;;;;31.75;36.42;100917.94;5019044;28;20153;-50
2023/07/10 11:47:07;;;;;;;12.23;6.07;;;;;;;31.78;35.90;100915.59;5012515;28;20434;-58